sensor_id;sensor_type;location;lat;lon;timestamp;P1;durP1;ratioP1;P2;durP2;ratioP2
17193;SDS011;8713;48.388;10.928;2022-11-30T00:00:50;12.02;;;7.00;;
17193;SDS011;8713;48.388;10.928;2022-11-30T00:02:20;13.35;;;7.25;;
17193;SDS011;8713;48.388;10.928;2022-11-30T00:03:53;14.45;;;7.22;;
17193;SDS011;8713;48.388;10.928;2022-11-30T00:05:24;15.02;;;7.72;;
17193;SDS011;8713;48.388;10.928;2022-11-30T00:06:54;13.70;;;7.53;;
17193;SDS011;8713;48.388;10.928;2022-11-30T00:08:25;13.40;;;7.20;;
17193;SDS011;8713;48.388;10.928;2022-11-30T00:09:57;13.85;;;6.90;;
17193;SDS011;8713;48.388;10.928;2022-11-30T00:11:27;15.90;;;7.95;;
17193;SDS011;8713;48.388;10.928;2022-11-30T00:12:56;12.30;;;7.03;;
17193;SDS011;8713;48.388;10.928;2022-11-30T00:14:26;12.65;;;7.32;;
17193;SDS011;8713;48.388;10.928;2022-11-30T00:15:58;12.75;;;6.25;;
17193;SDS011;8713;48.388;10.928;2022-11-30T00:17:29;14.15;;;7.40;;
17193;SDS011;8713;48.388;10.928;2022-11-30T00:18:59;14.88;;;7.20;;
17193;SDS011;8713;48.388;10.928;2022-11-30T00:20:28;14.82;;;7.25;;
17193;SDS011;8713;48.388;10.928;2022-11-30T00:21:58;13.32;;;6.43;;
17193;SDS011;8713;48.388;10.928;2022-11-30T00:23:31;15.27;;;7.57;;
17193;SDS011;8713;48.388;10.928;2022-11-30T00:25:02;13.18;;;6.90;;
17193;SDS011;8713;48.388;10.928;2022-11-30T00:26:32;13.23;;;7.03;;
17193;SDS011;8713;48.388;10.928;2022-11-30T00:28:02;10.52;;;6.18;;
17193;SDS011;8713;48.388;10.928;2022-11-30T00:29:32;12.90;;;6.45;;
17193;SDS011;8713;48.388;10.928;2022-11-30T00:31:03;11.75;;;6.63;;
17193;SDS011;8713;48.388;10.928;2022-11-30T00:32:39;10.60;;;5.93;;
17193;SDS011;8713;48.388;10.928;2022-11-30T00:34:09;12.32;;;6.13;;
17193;SDS011;8713;48.388;10.928;2022-11-30T00:35:38;13.05;;;7.10;;
17193;SDS011;8713;48.388;10.928;2022-11-30T00:37:08;12.88;;;6.70;;
17193;SDS011;8713;48.388;10.928;2022-11-30T00:38:38;14.57;;;6.90;;
17193;SDS011;8713;48.388;10.928;2022-11-30T00:40:07;12.57;;;6.60;;
17193;SDS011;8713;48.388;10.928;2022-11-30T00:41:38;12.98;;;6.88;;
17193;SDS011;8713;48.388;10.928;2022-11-30T00:43:07;18.48;;;8.13;;
17193;SDS011;8713;48.388;10.928;2022-11-30T00:44:37;15.73;;;7.60;;
17193;SDS011;8713;48.388;10.928;2022-11-30T00:46:07;14.15;;;7.38;;
17193;SDS011;8713;48.388;10.928;2022-11-30T00:47:37;14.00;;;7.38;;
17193;SDS011;8713;48.388;10.928;2022-11-30T00:49:08;14.98;;;8.43;;
17193;SDS011;8713;48.388;10.928;2022-11-30T00:50:37;12.95;;;7.13;;
17193;SDS011;8713;48.388;10.928;2022-11-30T00:52:06;14.85;;;7.47;;
17193;SDS011;8713;48.388;10.928;2022-11-30T00:53:36;13.63;;;6.93;;
17193;SDS011;8713;48.388;10.928;2022-11-30T00:55:07;16.48;;;7.47;;
17193;SDS011;8713;48.388;10.928;2022-11-30T00:56:37;15.88;;;7.68;;
17193;SDS011;8713;48.388;10.928;2022-11-30T00:58:07;15.70;;;8.15;;
17193;SDS011;8713;48.388;10.928;2022-11-30T00:59:36;15.38;;;7.78;;
17193;SDS011;8713;48.388;10.928;2022-11-30T01:01:06;16.98;;;8.50;;
17193;SDS011;8713;48.388;10.928;2022-11-30T01:02:36;18.00;;;8.75;;
17193;SDS011;8713;48.388;10.928;2022-11-30T01:04:06;13.73;;;7.35;;
17193;SDS011;8713;48.388;10.928;2022-11-30T01:05:36;17.40;;;8.10;;
17193;SDS011;8713;48.388;10.928;2022-11-30T01:07:06;14.73;;;7.88;;
17193;SDS011;8713;48.388;10.928;2022-11-30T01:08:36;19.33;;;8.85;;
17193;SDS011;8713;48.388;10.928;2022-11-30T01:10:06;16.80;;;7.97;;
17193;SDS011;8713;48.388;10.928;2022-11-30T01:11:37;14.88;;;7.68;;
17193;SDS011;8713;48.388;10.928;2022-11-30T01:13:07;18.58;;;8.27;;
17193;SDS011;8713;48.388;10.928;2022-11-30T01:14:37;17.83;;;8.55;;
17193;SDS011;8713;48.388;10.928;2022-11-30T01:16:07;16.05;;;8.43;;
17193;SDS011;8713;48.388;10.928;2022-11-30T01:17:45;16.20;;;7.55;;
17193;SDS011;8713;48.388;10.928;2022-11-30T01:19:15;16.85;;;7.72;;
17193;SDS011;8713;48.388;10.928;2022-11-30T01:20:44;14.52;;;7.13;;
17193;SDS011;8713;48.388;10.928;2022-11-30T01:22:14;16.27;;;8.30;;
17193;SDS011;8713;48.388;10.928;2022-11-30T01:23:43;13.82;;;8.02;;
17193;SDS011;8713;48.388;10.928;2022-11-30T01:25:13;16.30;;;8.18;;
17193;SDS011;8713;48.388;10.928;2022-11-30T01:26:44;18.17;;;8.70;;
17193;SDS011;8713;48.388;10.928;2022-11-30T01:28:13;18.35;;;9.00;;
17193;SDS011;8713;48.388;10.928;2022-11-30T01:29:43;15.93;;;8.60;;
17193;SDS011;8713;48.388;10.928;2022-11-30T01:31:12;14.27;;;7.78;;
17193;SDS011;8713;48.388;10.928;2022-11-30T01:32:42;15.05;;;7.68;;
17193;SDS011;8713;48.388;10.928;2022-11-30T01:34:12;15.70;;;7.95;;
17193;SDS011;8713;48.388;10.928;2022-11-30T01:35:41;18.42;;;8.70;;
17193;SDS011;8713;48.388;10.928;2022-11-30T01:37:11;17.80;;;8.98;;
17193;SDS011;8713;48.388;10.928;2022-11-30T01:38:44;16.80;;;8.48;;
17193;SDS011;8713;48.388;10.928;2022-11-30T01:40:16;18.15;;;8.57;;
17193;SDS011;8713;48.388;10.928;2022-11-30T01:41:47;14.60;;;8.05;;
17193;SDS011;8713;48.388;10.928;2022-11-30T01:43:17;16.90;;;8.00;;
17193;SDS011;8713;48.388;10.928;2022-11-30T01:44:52;15.40;;;7.70;;
17193;SDS011;8713;48.388;10.928;2022-11-30T01:47:59;15.05;;;7.45;;
17193;SDS011;8713;48.388;10.928;2022-11-30T01:49:29;13.43;;;7.40;;
17193;SDS011;8713;48.388;10.928;2022-11-30T01:51:12;15.15;;;7.85;;
17193;SDS011;8713;48.388;10.928;2022-11-30T01:52:44;17.58;;;8.55;;
17193;SDS011;8713;48.388;10.928;2022-11-30T01:54:17;16.83;;;8.13;;
17193;SDS011;8713;48.388;10.928;2022-11-30T01:55:51;14.15;;;7.38;;
17193;SDS011;8713;48.388;10.928;2022-11-30T01:57:21;15.13;;;7.88;;
17193;SDS011;8713;48.388;10.928;2022-11-30T01:59:07;17.33;;;8.05;;
17193;SDS011;8713;48.388;10.928;2022-11-30T02:00:38;17.48;;;8.20;;
17193;SDS011;8713;48.388;10.928;2022-11-30T02:02:17;16.13;;;8.20;;
17193;SDS011;8713;48.388;10.928;2022-11-30T02:03:54;16.73;;;8.02;;
17193;SDS011;8713;48.388;10.928;2022-11-30T02:05:28;17.75;;;8.57;;
17193;SDS011;8713;48.388;10.928;2022-11-30T02:06:58;19.10;;;8.80;;
17193;SDS011;8713;48.388;10.928;2022-11-30T02:08:28;18.33;;;8.70;;
17193;SDS011;8713;48.388;10.928;2022-11-30T02:09:58;15.38;;;7.15;;
17193;SDS011;8713;48.388;10.928;2022-11-30T02:11:28;16.55;;;7.93;;
17193;SDS011;8713;48.388;10.928;2022-11-30T02:14:50;14.80;;;7.72;;
17193;SDS011;8713;48.388;10.928;2022-11-30T02:18:16;15.27;;;7.63;;
17193;SDS011;8713;48.388;10.928;2022-11-30T02:30:09;17.40;;;8.02;;
17193;SDS011;8713;48.388;10.928;2022-11-30T02:31:50;17.17;;;8.55;;
17193;SDS011;8713;48.388;10.928;2022-11-30T02:33:30;20.52;;;9.35;;
17193;SDS011;8713;48.388;10.928;2022-11-30T02:35:00;19.65;;;9.25;;
17193;SDS011;8713;48.388;10.928;2022-11-30T02:36:31;17.20;;;8.82;;
17193;SDS011;8713;48.388;10.928;2022-11-30T02:38:02;17.33;;;9.07;;
17193;SDS011;8713;48.388;10.928;2022-11-30T02:39:32;18.92;;;9.35;;
17193;SDS011;8713;48.388;10.928;2022-11-30T02:41:02;23.33;;;10.07;;
17193;SDS011;8713;48.388;10.928;2022-11-30T02:42:32;19.83;;;9.77;;
17193;SDS011;8713;48.388;10.928;2022-11-30T02:44:01;23.83;;;11.45;;
17193;SDS011;8713;48.388;10.928;2022-11-30T02:45:34;23.77;;;11.00;;
17193;SDS011;8713;48.388;10.928;2022-11-30T02:49:29;19.73;;;9.60;;
17193;SDS011;8713;48.388;10.928;2022-11-30T02:51:05;14.88;;;8.32;;
17193;SDS011;8713;48.388;10.928;2022-11-30T02:52:37;16.70;;;8.75;;
17193;SDS011;8713;48.388;10.928;2022-11-30T02:54:07;19.65;;;9.05;;
17193;SDS011;8713;48.388;10.928;2022-11-30T02:55:37;20.55;;;9.13;;
17193;SDS011;8713;48.388;10.928;2022-11-30T02:57:07;18.25;;;8.55;;
17193;SDS011;8713;48.388;10.928;2022-11-30T02:58:37;16.02;;;7.82;;
17193;SDS011;8713;48.388;10.928;2022-11-30T03:00:08;17.92;;;8.35;;
17193;SDS011;8713;48.388;10.928;2022-11-30T03:01:39;15.60;;;8.07;;
17193;SDS011;8713;48.388;10.928;2022-11-30T03:03:10;18.17;;;8.48;;
17193;SDS011;8713;48.388;10.928;2022-11-30T03:04:39;16.60;;;8.23;;
17193;SDS011;8713;48.388;10.928;2022-11-30T03:06:09;18.42;;;8.43;;
17193;SDS011;8713;48.388;10.928;2022-11-30T03:07:39;16.75;;;8.57;;
17193;SDS011;8713;48.388;10.928;2022-11-30T03:09:08;17.15;;;8.75;;
17193;SDS011;8713;48.388;10.928;2022-11-30T03:10:37;13.73;;;7.03;;
17193;SDS011;8713;48.388;10.928;2022-11-30T03:12:07;14.77;;;7.28;;
17193;SDS011;8713;48.388;10.928;2022-11-30T03:13:36;14.48;;;7.85;;
17193;SDS011;8713;48.388;10.928;2022-11-30T03:15:06;17.60;;;8.60;;
17193;SDS011;8713;48.388;10.928;2022-11-30T03:16:36;17.98;;;8.70;;
17193;SDS011;8713;48.388;10.928;2022-11-30T03:18:06;19.42;;;9.68;;
17193;SDS011;8713;48.388;10.928;2022-11-30T03:19:36;14.95;;;8.25;;
17193;SDS011;8713;48.388;10.928;2022-11-30T03:21:06;16.67;;;7.63;;
17193;SDS011;8713;48.388;10.928;2022-11-30T03:22:36;14.85;;;7.57;;
17193;SDS011;8713;48.388;10.928;2022-11-30T03:24:06;17.60;;;8.50;;
17193;SDS011;8713;48.388;10.928;2022-11-30T03:25:36;15.52;;;8.07;;
17193;SDS011;8713;48.388;10.928;2022-11-30T03:27:06;16.95;;;7.70;;
17193;SDS011;8713;48.388;10.928;2022-11-30T03:28:36;16.42;;;8.48;;
17193;SDS011;8713;48.388;10.928;2022-11-30T03:30:06;15.95;;;8.27;;
17193;SDS011;8713;48.388;10.928;2022-11-30T03:31:36;14.95;;;8.00;;
17193;SDS011;8713;48.388;10.928;2022-11-30T03:33:06;17.70;;;8.50;;
17193;SDS011;8713;48.388;10.928;2022-11-30T03:34:35;19.08;;;9.05;;
17193;SDS011;8713;48.388;10.928;2022-11-30T03:36:05;17.38;;;8.18;;
17193;SDS011;8713;48.388;10.928;2022-11-30T03:37:38;16.63;;;8.15;;
17193;SDS011;8713;48.388;10.928;2022-11-30T03:39:08;21.25;;;10.30;;
17193;SDS011;8713;48.388;10.928;2022-11-30T03:40:37;16.23;;;8.23;;
17193;SDS011;8713;48.388;10.928;2022-11-30T03:42:07;18.08;;;9.02;;
17193;SDS011;8713;48.388;10.928;2022-11-30T03:43:37;16.98;;;8.63;;
17193;SDS011;8713;48.388;10.928;2022-11-30T03:45:07;13.65;;;7.45;;
17193;SDS011;8713;48.388;10.928;2022-11-30T03:46:37;17.38;;;8.77;;
17193;SDS011;8713;48.388;10.928;2022-11-30T03:48:06;14.43;;;7.20;;
17193;SDS011;8713;48.388;10.928;2022-11-30T03:49:36;16.85;;;8.18;;
17193;SDS011;8713;48.388;10.928;2022-11-30T03:51:05;16.40;;;8.07;;
17193;SDS011;8713;48.388;10.928;2022-11-30T03:52:36;19.25;;;8.88;;
17193;SDS011;8713;48.388;10.928;2022-11-30T03:54:06;17.58;;;8.73;;
17193;SDS011;8713;48.388;10.928;2022-11-30T03:55:35;18.63;;;8.57;;
17193;SDS011;8713;48.388;10.928;2022-11-30T03:57:05;16.10;;;7.78;;
17193;SDS011;8713;48.388;10.928;2022-11-30T03:58:34;16.17;;;8.23;;
17193;SDS011;8713;48.388;10.928;2022-11-30T04:00:05;14.60;;;7.85;;
17193;SDS011;8713;48.388;10.928;2022-11-30T04:01:41;14.55;;;7.80;;
17193;SDS011;8713;48.388;10.928;2022-11-30T04:03:10;16.00;;;8.00;;
17193;SDS011;8713;48.388;10.928;2022-11-30T04:04:40;14.98;;;8.43;;
17193;SDS011;8713;48.388;10.928;2022-11-30T04:06:10;21.63;;;8.73;;
17193;SDS011;8713;48.388;10.928;2022-11-30T04:07:40;15.82;;;8.15;;
17193;SDS011;8713;48.388;10.928;2022-11-30T04:09:10;18.00;;;8.75;;
17193;SDS011;8713;48.388;10.928;2022-11-30T04:10:39;16.75;;;8.82;;
17193;SDS011;8713;48.388;10.928;2022-11-30T04:12:09;19.10;;;9.60;;
17193;SDS011;8713;48.388;10.928;2022-11-30T04:13:39;17.63;;;8.68;;
17193;SDS011;8713;48.388;10.928;2022-11-30T04:15:10;19.25;;;9.30;;
17193;SDS011;8713;48.388;10.928;2022-11-30T04:16:40;18.73;;;9.23;;
17193;SDS011;8713;48.388;10.928;2022-11-30T04:18:09;19.55;;;9.13;;
17193;SDS011;8713;48.388;10.928;2022-11-30T04:19:39;19.45;;;9.18;;
17193;SDS011;8713;48.388;10.928;2022-11-30T04:21:09;19.88;;;8.90;;
17193;SDS011;8713;48.388;10.928;2022-11-30T04:22:38;17.33;;;8.75;;
17193;SDS011;8713;48.388;10.928;2022-11-30T04:24:08;16.35;;;8.70;;
17193;SDS011;8713;48.388;10.928;2022-11-30T04:25:38;18.45;;;8.40;;
17193;SDS011;8713;48.388;10.928;2022-11-30T04:27:08;18.73;;;8.43;;
17193;SDS011;8713;48.388;10.928;2022-11-30T04:28:37;21.48;;;9.60;;
17193;SDS011;8713;48.388;10.928;2022-11-30T04:30:07;19.02;;;9.13;;
17193;SDS011;8713;48.388;10.928;2022-11-30T04:31:37;23.42;;;10.63;;
17193;SDS011;8713;48.388;10.928;2022-11-30T04:33:06;21.13;;;10.38;;
17193;SDS011;8713;48.388;10.928;2022-11-30T04:34:36;22.95;;;9.80;;
17193;SDS011;8713;48.388;10.928;2022-11-30T04:36:06;21.25;;;9.75;;
17193;SDS011;8713;48.388;10.928;2022-11-30T04:37:42;18.27;;;8.90;;
17193;SDS011;8713;48.388;10.928;2022-11-30T04:39:11;18.70;;;8.98;;
17193;SDS011;8713;48.388;10.928;2022-11-30T04:40:41;22.02;;;9.30;;
17193;SDS011;8713;48.388;10.928;2022-11-30T04:42:11;20.55;;;9.15;;
17193;SDS011;8713;48.388;10.928;2022-11-30T04:43:41;19.17;;;8.48;;
17193;SDS011;8713;48.388;10.928;2022-11-30T04:45:10;21.90;;;9.63;;
17193;SDS011;8713;48.388;10.928;2022-11-30T04:46:40;28.25;;;10.93;;
17193;SDS011;8713;48.388;10.928;2022-11-30T04:48:09;19.63;;;9.15;;
17193;SDS011;8713;48.388;10.928;2022-11-30T04:49:39;21.23;;;9.13;;
17193;SDS011;8713;48.388;10.928;2022-11-30T04:51:08;30.17;;;12.82;;
17193;SDS011;8713;48.388;10.928;2022-11-30T04:52:38;28.23;;;11.18;;
17193;SDS011;8713;48.388;10.928;2022-11-30T04:54:08;22.92;;;10.43;;
17193;SDS011;8713;48.388;10.928;2022-11-30T04:55:38;24.00;;;10.55;;
17193;SDS011;8713;48.388;10.928;2022-11-30T04:57:07;20.90;;;9.35;;
17193;SDS011;8713;48.388;10.928;2022-11-30T04:58:37;29.27;;;11.70;;
17193;SDS011;8713;48.388;10.928;2022-11-30T05:00:08;24.00;;;10.10;;
17193;SDS011;8713;48.388;10.928;2022-11-30T05:01:38;26.33;;;11.10;;
17193;SDS011;8713;48.388;10.928;2022-11-30T05:03:08;30.45;;;12.52;;
17193;SDS011;8713;48.388;10.928;2022-11-30T05:04:38;30.98;;;11.68;;
17193;SDS011;8713;48.388;10.928;2022-11-30T05:06:07;27.67;;;10.68;;
17193;SDS011;8713;48.388;10.928;2022-11-30T05:07:37;31.60;;;12.30;;
17193;SDS011;8713;48.388;10.928;2022-11-30T05:09:06;23.38;;;9.65;;
17193;SDS011;8713;48.388;10.928;2022-11-30T05:10:36;27.67;;;11.23;;
17193;SDS011;8713;48.388;10.928;2022-11-30T05:12:06;26.02;;;10.32;;
17193;SDS011;8713;48.388;10.928;2022-11-30T05:13:35;29.90;;;12.00;;
17193;SDS011;8713;48.388;10.928;2022-11-30T05:15:05;29.02;;;10.98;;
17193;SDS011;8713;48.388;10.928;2022-11-30T05:16:35;31.25;;;12.80;;
17193;SDS011;8713;48.388;10.928;2022-11-30T05:18:05;29.77;;;11.95;;
17193;SDS011;8713;48.388;10.928;2022-11-30T05:19:35;25.65;;;10.88;;
17193;SDS011;8713;48.388;10.928;2022-11-30T05:21:04;29.67;;;12.13;;
17193;SDS011;8713;48.388;10.928;2022-11-30T05:22:34;30.63;;;12.45;;
17193;SDS011;8713;48.388;10.928;2022-11-30T05:24:04;25.30;;;10.60;;
17193;SDS011;8713;48.388;10.928;2022-11-30T05:25:34;25.45;;;10.25;;
17193;SDS011;8713;48.388;10.928;2022-11-30T05:27:04;30.63;;;13.15;;
17193;SDS011;8713;48.388;10.928;2022-11-30T05:28:34;25.70;;;11.10;;
17193;SDS011;8713;48.388;10.928;2022-11-30T05:30:04;27.38;;;11.73;;
17193;SDS011;8713;48.388;10.928;2022-11-30T05:31:36;21.23;;;9.15;;
17193;SDS011;8713;48.388;10.928;2022-11-30T05:33:06;23.73;;;10.65;;
17193;SDS011;8713;48.388;10.928;2022-11-30T05:34:36;25.55;;;10.70;;
17193;SDS011;8713;48.388;10.928;2022-11-30T05:36:06;31.40;;;12.05;;
17193;SDS011;8713;48.388;10.928;2022-11-30T05:37:37;28.88;;;12.23;;
17193;SDS011;8713;48.388;10.928;2022-11-30T05:39:06;27.17;;;12.35;;
17193;SDS011;8713;48.388;10.928;2022-11-30T05:40:36;29.92;;;11.55;;
17193;SDS011;8713;48.388;10.928;2022-11-30T05:42:05;25.77;;;11.70;;
17193;SDS011;8713;48.388;10.928;2022-11-30T05:43:35;28.02;;;11.85;;
17193;SDS011;8713;48.388;10.928;2022-11-30T05:45:04;22.27;;;9.63;;
17193;SDS011;8713;48.388;10.928;2022-11-30T05:46:34;29.02;;;10.95;;
17193;SDS011;8713;48.388;10.928;2022-11-30T05:48:04;26.73;;;12.18;;
17193;SDS011;8713;48.388;10.928;2022-11-30T05:49:34;26.30;;;10.23;;
17193;SDS011;8713;48.388;10.928;2022-11-30T05:51:04;30.55;;;11.48;;
17193;SDS011;8713;48.388;10.928;2022-11-30T05:52:35;28.58;;;11.38;;
17193;SDS011;8713;48.388;10.928;2022-11-30T05:54:05;29.77;;;12.43;;
17193;SDS011;8713;48.388;10.928;2022-11-30T05:55:35;25.33;;;10.25;;
17193;SDS011;8713;48.388;10.928;2022-11-30T05:57:04;26.02;;;10.25;;
17193;SDS011;8713;48.388;10.928;2022-11-30T05:58:34;22.55;;;10.55;;
17193;SDS011;8713;48.388;10.928;2022-11-30T06:00:05;23.75;;;9.23;;
17193;SDS011;8713;48.388;10.928;2022-11-30T06:01:41;19.33;;;8.75;;
17193;SDS011;8713;48.388;10.928;2022-11-30T06:03:10;21.02;;;9.52;;
17193;SDS011;8713;48.388;10.928;2022-11-30T06:04:39;22.20;;;9.52;;
17193;SDS011;8713;48.388;10.928;2022-11-30T06:06:09;25.08;;;11.50;;
17193;SDS011;8713;48.388;10.928;2022-11-30T06:07:39;23.38;;;10.25;;
17193;SDS011;8713;48.388;10.928;2022-11-30T06:09:09;25.50;;;10.82;;
17193;SDS011;8713;48.388;10.928;2022-11-30T06:10:38;21.45;;;9.93;;
17193;SDS011;8713;48.388;10.928;2022-11-30T06:12:08;22.58;;;10.00;;
17193;SDS011;8713;48.388;10.928;2022-11-30T06:13:37;24.70;;;9.77;;
17193;SDS011;8713;48.388;10.928;2022-11-30T06:15:08;22.45;;;9.27;;
17193;SDS011;8713;48.388;10.928;2022-11-30T06:16:38;22.27;;;9.60;;
17193;SDS011;8713;48.388;10.928;2022-11-30T06:18:08;24.15;;;9.88;;
17193;SDS011;8713;48.388;10.928;2022-11-30T06:19:40;21.80;;;9.85;;
17193;SDS011;8713;48.388;10.928;2022-11-30T06:21:10;23.98;;;10.40;;
17193;SDS011;8713;48.388;10.928;2022-11-30T06:22:43;20.08;;;9.15;;
17193;SDS011;8713;48.388;10.928;2022-11-30T06:24:14;23.33;;;12.95;;
17193;SDS011;8713;48.388;10.928;2022-11-30T06:25:43;25.38;;;14.30;;
17193;SDS011;8713;48.388;10.928;2022-11-30T06:27:13;28.33;;;12.20;;
17193;SDS011;8713;48.388;10.928;2022-11-30T06:28:42;27.60;;;11.35;;
17193;SDS011;8713;48.388;10.928;2022-11-30T06:30:12;23.13;;;10.68;;
17193;SDS011;8713;48.388;10.928;2022-11-30T06:31:42;21.05;;;9.30;;
17193;SDS011;8713;48.388;10.928;2022-11-30T06:33:12;22.75;;;9.70;;
17193;SDS011;8713;48.388;10.928;2022-11-30T06:34:41;25.90;;;11.13;;
17193;SDS011;8713;48.388;10.928;2022-11-30T06:36:11;24.58;;;10.48;;
17193;SDS011;8713;48.388;10.928;2022-11-30T06:37:40;22.85;;;9.68;;
17193;SDS011;8713;48.388;10.928;2022-11-30T06:39:11;25.20;;;11.10;;
17193;SDS011;8713;48.388;10.928;2022-11-30T06:40:41;26.55;;;11.45;;
17193;SDS011;8713;48.388;10.928;2022-11-30T06:42:10;28.15;;;12.52;;
17193;SDS011;8713;48.388;10.928;2022-11-30T06:43:40;23.77;;;10.20;;
17193;SDS011;8713;48.388;10.928;2022-11-30T06:45:10;20.70;;;9.82;;
17193;SDS011;8713;48.388;10.928;2022-11-30T06:46:40;23.30;;;9.35;;
17193;SDS011;8713;48.388;10.928;2022-11-30T06:48:09;22.85;;;10.00;;
17193;SDS011;8713;48.388;10.928;2022-11-30T06:49:39;20.52;;;9.32;;
17193;SDS011;8713;48.388;10.928;2022-11-30T06:51:09;22.02;;;10.27;;
17193;SDS011;8713;48.388;10.928;2022-11-30T06:52:39;19.25;;;9.00;;
17193;SDS011;8713;48.388;10.928;2022-11-30T06:54:09;22.90;;;9.43;;
17193;SDS011;8713;48.388;10.928;2022-11-30T06:55:38;19.98;;;9.95;;
17193;SDS011;8713;48.388;10.928;2022-11-30T06:57:08;26.30;;;9.75;;
17193;SDS011;8713;48.388;10.928;2022-11-30T06:58:38;21.27;;;9.57;;
17193;SDS011;8713;48.388;10.928;2022-11-30T07:00:08;26.45;;;11.45;;
17193;SDS011;8713;48.388;10.928;2022-11-30T07:01:40;22.48;;;10.38;;
17193;SDS011;8713;48.388;10.928;2022-11-30T07:03:10;20.58;;;9.70;;
17193;SDS011;8713;48.388;10.928;2022-11-30T07:04:40;37.33;;;17.80;;
17193;SDS011;8713;48.388;10.928;2022-11-30T07:06:10;26.45;;;12.55;;
17193;SDS011;8713;48.388;10.928;2022-11-30T07:07:41;26.02;;;11.85;;
17193;SDS011;8713;48.388;10.928;2022-11-30T07:09:10;23.50;;;11.60;;
17193;SDS011;8713;48.388;10.928;2022-11-30T07:10:45;21.63;;;10.25;;
17193;SDS011;8713;48.388;10.928;2022-11-30T07:12:15;22.25;;;10.60;;
17193;SDS011;8713;48.388;10.928;2022-11-30T07:13:45;25.88;;;11.40;;
17193;SDS011;8713;48.388;10.928;2022-11-30T07:15:14;21.05;;;9.52;;
17193;SDS011;8713;48.388;10.928;2022-11-30T07:16:44;19.58;;;10.00;;
17193;SDS011;8713;48.388;10.928;2022-11-30T07:18:14;22.98;;;11.27;;
17193;SDS011;8713;48.388;10.928;2022-11-30T07:19:43;28.35;;;12.57;;
17193;SDS011;8713;48.388;10.928;2022-11-30T07:21:13;22.23;;;10.82;;
17193;SDS011;8713;48.388;10.928;2022-11-30T07:22:43;20.52;;;10.50;;
17193;SDS011;8713;48.388;10.928;2022-11-30T07:24:13;26.80;;;11.35;;
17193;SDS011;8713;48.388;10.928;2022-11-30T07:26:01;27.65;;;10.07;;
17193;SDS011;8713;48.388;10.928;2022-11-30T07:27:34;22.35;;;9.63;;
17193;SDS011;8713;48.388;10.928;2022-11-30T07:29:04;23.58;;;10.20;;
17193;SDS011;8713;48.388;10.928;2022-11-30T07:30:33;22.58;;;9.25;;
17193;SDS011;8713;48.388;10.928;2022-11-30T07:32:03;17.95;;;8.48;;
17193;SDS011;8713;48.388;10.928;2022-11-30T07:33:33;21.42;;;8.95;;
17193;SDS011;8713;48.388;10.928;2022-11-30T07:35:02;18.15;;;8.27;;
17193;SDS011;8713;48.388;10.928;2022-11-30T07:36:32;18.88;;;8.85;;
17193;SDS011;8713;48.388;10.928;2022-11-30T07:38:02;24.85;;;9.98;;
17193;SDS011;8713;48.388;10.928;2022-11-30T07:39:32;19.10;;;8.32;;
17193;SDS011;8713;48.388;10.928;2022-11-30T07:41:01;14.77;;;6.68;;
17193;SDS011;8713;48.388;10.928;2022-11-30T07:42:31;17.88;;;8.50;;
17193;SDS011;8713;48.388;10.928;2022-11-30T07:44:02;15.93;;;8.02;;
17193;SDS011;8713;48.388;10.928;2022-11-30T07:45:33;18.13;;;8.70;;
17193;SDS011;8713;48.388;10.928;2022-11-30T07:47:02;14.52;;;6.47;;
17193;SDS011;8713;48.388;10.928;2022-11-30T07:48:33;14.35;;;7.28;;
17193;SDS011;8713;48.388;10.928;2022-11-30T07:50:03;16.85;;;8.30;;
17193;SDS011;8713;48.388;10.928;2022-11-30T07:51:33;17.90;;;9.07;;
17193;SDS011;8713;48.388;10.928;2022-11-30T07:53:02;18.65;;;9.13;;
17193;SDS011;8713;48.388;10.928;2022-11-30T07:54:32;17.45;;;8.38;;
17193;SDS011;8713;48.388;10.928;2022-11-30T07:56:02;16.27;;;8.90;;
17193;SDS011;8713;48.388;10.928;2022-11-30T07:57:34;17.67;;;8.15;;
17193;SDS011;8713;48.388;10.928;2022-11-30T07:59:04;20.73;;;8.90;;
17193;SDS011;8713;48.388;10.928;2022-11-30T08:00:33;15.95;;;7.95;;
17193;SDS011;8713;48.388;10.928;2022-11-30T08:02:04;14.95;;;6.95;;
17193;SDS011;8713;48.388;10.928;2022-11-30T08:03:34;14.25;;;6.88;;
17193;SDS011;8713;48.388;10.928;2022-11-30T08:05:04;16.17;;;8.25;;
17193;SDS011;8713;48.388;10.928;2022-11-30T08:06:34;13.20;;;7.10;;
17193;SDS011;8713;48.388;10.928;2022-11-30T08:08:04;15.40;;;7.70;;
17193;SDS011;8713;48.388;10.928;2022-11-30T08:09:33;16.95;;;8.10;;
17193;SDS011;8713;48.388;10.928;2022-11-30T08:11:03;13.48;;;6.93;;
17193;SDS011;8713;48.388;10.928;2022-11-30T08:12:34;13.23;;;6.57;;
17193;SDS011;8713;48.388;10.928;2022-11-30T08:14:04;11.68;;;6.20;;
17193;SDS011;8713;48.388;10.928;2022-11-30T08:15:34;12.23;;;6.03;;
17193;SDS011;8713;48.388;10.928;2022-11-30T08:17:03;11.88;;;5.65;;
17193;SDS011;8713;48.388;10.928;2022-11-30T08:18:33;10.63;;;5.78;;
17193;SDS011;8713;48.388;10.928;2022-11-30T08:20:04;12.23;;;5.95;;
17193;SDS011;8713;48.388;10.928;2022-11-30T08:21:36;15.85;;;7.15;;
17193;SDS011;8713;48.388;10.928;2022-11-30T08:23:06;12.43;;;6.40;;
17193;SDS011;8713;48.388;10.928;2022-11-30T08:24:35;13.15;;;5.78;;
17193;SDS011;8713;48.388;10.928;2022-11-30T08:26:15;16.30;;;7.72;;
17193;SDS011;8713;48.388;10.928;2022-11-30T08:27:47;11.93;;;5.53;;
17193;SDS011;8713;48.388;10.928;2022-11-30T08:29:16;10.82;;;4.95;;
17193;SDS011;8713;48.388;10.928;2022-11-30T08:30:46;11.55;;;5.80;;
17193;SDS011;8713;48.388;10.928;2022-11-30T08:32:16;10.68;;;5.53;;
17193;SDS011;8713;48.388;10.928;2022-11-30T08:33:45;12.52;;;5.88;;
17193;SDS011;8713;48.388;10.928;2022-11-30T08:35:15;11.95;;;5.30;;
17193;SDS011;8713;48.388;10.928;2022-11-30T08:36:45;10.98;;;5.85;;
17193;SDS011;8713;48.388;10.928;2022-11-30T08:38:15;11.48;;;5.47;;
17193;SDS011;8713;48.388;10.928;2022-11-30T08:39:44;13.32;;;6.25;;
17193;SDS011;8713;48.388;10.928;2022-11-30T08:41:15;11.43;;;5.65;;
17193;SDS011;8713;48.388;10.928;2022-11-30T08:42:48;11.30;;;5.55;;
17193;SDS011;8713;48.388;10.928;2022-11-30T08:44:17;11.95;;;5.72;;
17193;SDS011;8713;48.388;10.928;2022-11-30T08:45:46;9.90;;;5.32;;
17193;SDS011;8713;48.388;10.928;2022-11-30T08:47:16;9.32;;;5.20;;
17193;SDS011;8713;48.388;10.928;2022-11-30T08:48:46;10.25;;;5.18;;
17193;SDS011;8713;48.388;10.928;2022-11-30T08:50:15;10.98;;;5.47;;
17193;SDS011;8713;48.388;10.928;2022-11-30T08:51:46;10.32;;;5.85;;
17193;SDS011;8713;48.388;10.928;2022-11-30T08:53:16;9.35;;;5.43;;
17193;SDS011;8713;48.388;10.928;2022-11-30T08:54:46;9.85;;;4.97;;
17193;SDS011;8713;48.388;10.928;2022-11-30T08:56:17;10.93;;;5.30;;
17193;SDS011;8713;48.388;10.928;2022-11-30T08:57:48;10.38;;;5.55;;
17193;SDS011;8713;48.388;10.928;2022-11-30T08:59:18;10.35;;;5.03;;
17193;SDS011;8713;48.388;10.928;2022-11-30T09:00:48;10.02;;;5.15;;
17193;SDS011;8713;48.388;10.928;2022-11-30T09:02:18;8.52;;;5.00;;
17193;SDS011;8713;48.388;10.928;2022-11-30T09:03:48;10.20;;;5.07;;
17193;SDS011;8713;48.388;10.928;2022-11-30T09:05:21;10.77;;;5.15;;
17193;SDS011;8713;48.388;10.928;2022-11-30T09:06:50;8.10;;;4.40;;
17193;SDS011;8713;48.388;10.928;2022-11-30T09:08:20;9.38;;;4.82;;
17193;SDS011;8713;48.388;10.928;2022-11-30T09:09:49;9.13;;;4.68;;
17193;SDS011;8713;48.388;10.928;2022-11-30T09:11:20;9.48;;;4.95;;
17193;SDS011;8713;48.388;10.928;2022-11-30T09:12:55;7.57;;;4.53;;